sensor_id;sensor_type;location;lat;lon;timestamp;pressure;altitude;pressure_sealevel;temperature;humidity
29549;BME280;16487;53.094;8.800;2023-04-22T00:01:34;101192.69;;;12.90;100.00
29549;BME280;16487;53.094;8.800;2023-04-22T00:04:03;101188.53;;;12.94;100.00
29549;BME280;16487;53.094;8.800;2023-04-22T00:06:31;101191.00;;;12.92;100.00
29549;BME280;16487;53.094;8.800;2023-04-22T00:08:58;101181.94;;;12.88;100.00
29549;BME280;16487;53.094;8.800;2023-04-22T00:11:26;101172.19;;;12.80;100.00
29549;BME280;16487;53.094;8.800;2023-04-22T00:13:53;101172.09;;;12.84;100.00
29549;BME280;16487;53.094;8.800;2023-04-22T00:16:20;101162.47;;;12.85;100.00
29549;BME280;16487;53.094;8.800;2023-04-22T00:18:48;101162.91;;;12.83;100.00
29549;BME280;16487;53.094;8.800;2023-04-22T00:21:16;101162.25;;;12.79;100.00
29549;BME280;16487;53.094;8.800;2023-04-22T00:23:44;101160.22;;;12.80;100.00
29549;BME280;16487;53.094;8.800;2023-04-22T00:26:11;101151.75;;;12.71;100.00
29549;BME280;16487;53.094;8.800;2023-04-22T00:28:39;101154.75;;;12.76;100.00
29549;BME280;16487;53.094;8.800;2023-04-22T00:31:07;101149.94;;;12.64;100.00
29549;BME280;16487;53.094;8.800;2023-04-22T00:33:34;101131.03;;;12.68;100.00
29549;BME280;16487;53.094;8.800;2023-04-22T00:36:02;101136.75;;;12.64;100.00
29549;BME280;16487;53.094;8.800;2023-04-22T00:38:31;101132.50;;;12.73;100.00
29549;BME280;16487;53.094;8.800;2023-04-22T00:40:58;101125.44;;;12.68;100.00
29549;BME280;16487;53.094;8.800;2023-04-22T00:43:26;101125.66;;;12.61;100.00
29549;BME280;16487;53.094;8.800;2023-04-22T00:45:53;101127.56;;;12.64;100.00
29549;BME280;16487;53.094;8.800;2023-04-22T00:48:23;101130.34;;;12.64;100.00
29549;BME280;16487;53.094;8.800;2023-04-22T00:50:54;101120.75;;;12.65;100.00
29549;BME280;16487;53.094;8.800;2023-04-22T00:53:22;101115.38;;;12.71;100.00
29549;BME280;16487;53.094;8.800;2023-04-22T00:55:50;101123.22;;;12.63;100.00
29549;BME280;16487;53.094;8.800;2023-04-22T00:58:18;101120.41;;;12.50;100.00
29549;BME280;16487;53.094;8.800;2023-04-22T01:00:46;101123.22;;;12.63;100.00
29549;BME280;16487;53.094;8.800;2023-04-22T01:03:14;101109.44;;;12.68;100.00
29549;BME280;16487;53.094;8.800;2023-04-22T01:05:42;101113.34;;;12.71;100.00
29549;BME280;16487;53.094;8.800;2023-04-22T01:08:10;101113.03;;;12.69;100.00
29549;BME280;16487;53.094;8.800;2023-04-22T01:10:38;101112.38;;;12.65;100.00
29549;BME280;16487;53.094;8.800;2023-04-22T01:13:08;101111.78;;;12.70;100.00
29549;BME280;16487;53.094;8.800;2023-04-22T01:15:36;101119.63;;;12.62;100.00
29549;BME280;16487;53.094;8.800;2023-04-22T01:18:04;101121.19;;;12.51;100.00
29549;BME280;16487;53.094;8.800;2023-04-22T01:20:31;101112.69;;;12.54;100.00
29549;BME280;16487;53.094;8.800;2023-04-22T01:25:29;101103.41;;;12.45;100.00
29549;BME280;16487;53.094;8.800;2023-04-22T01:27:57;101115.94;;;12.40;100.00
29549;BME280;16487;53.094;8.800;2023-04-22T01:30:25;101113.25;;;12.49;100.00
29549;BME280;16487;53.094;8.800;2023-04-22T01:32:52;101102.75;;;12.53;100.00
29549;BME280;16487;53.094;8.800;2023-04-22T01:35:20;101107.44;;;12.44;100.00
29549;BME280;16487;53.094;8.800;2023-04-22T01:37:47;101103.09;;;12.43;100.00
29549;BME280;16487;53.094;8.800;2023-04-22T01:40:15;101098.16;;;12.34;100.00
29549;BME280;16487;53.094;8.800;2023-04-22T01:42:44;101100.41;;;12.27;100.00
29549;BME280;16487;53.094;8.800;2023-04-22T01:45:11;101097.72;;;12.36;100.00
29549;BME280;16487;53.094;8.800;2023-04-22T01:47:38;101095.50;;;12.31;100.00
29549;BME280;16487;53.094;8.800;2023-04-22T01:50:07;101087.88;;;12.31;100.00
29549;BME280;16487;53.094;8.800;2023-04-22T01:52:35;101082.72;;;12.30;100.00
29549;BME280;16487;53.094;8.800;2023-04-22T01:55:03;101086.09;;;12.37;100.00
29549;BME280;16487;53.094;8.800;2023-04-22T01:57:31;101093.91;;;12.42;100.00
29549;BME280;16487;53.094;8.800;2023-04-22T02:00:01;101089.56;;;12.41;100.00
29549;BME280;16487;53.094;8.800;2023-04-22T02:02:38;101086.53;;;12.36;100.00
29549;BME280;16487;53.094;8.800;2023-04-22T02:05:07;101087.88;;;12.44;100.00
29549;BME280;16487;53.094;8.800;2023-04-22T02:07:35;101086.88;;;12.38;100.00
29549;BME280;16487;53.094;8.800;2023-04-22T02:10:02;101085.31;;;12.37;100.00
29549;BME280;16487;53.094;8.800;2023-04-22T02:12:30;101091.34;;;12.48;100.00
29549;BME280;16487;53.094;8.800;2023-04-22T02:14:58;101085.63;;;12.39;100.00
29549;BME280;16487;53.094;8.800;2023-04-22T02:17:26;101088.78;;;12.41;100.00
29549;BME280;16487;53.094;8.800;2023-04-22T02:19:54;101093.00;;;12.33;100.00
29549;BME280;16487;53.094;8.800;2023-04-22T02:22:22;101085.50;;;12.30;100.00
29549;BME280;16487;53.094;8.800;2023-04-22T02:24:50;101084.97;;;12.35;100.00
29549;BME280;16487;53.094;8.800;2023-04-22T02:27:18;101095.50;;;12.31;100.00
29549;BME280;16487;53.094;8.800;2023-04-22T02:29:47;101084.97;;;12.35;100.00
29549;BME280;16487;53.094;8.800;2023-04-22T02:32:16;101080.03;;;12.39;100.00
29549;BME280;16487;53.094;8.800;2023-04-22T02:34:45;101079.47;;;12.31;100.00
29549;BME280;16487;53.094;8.800;2023-04-22T02:37:12;101075.56;;;12.29;100.00
29549;BME280;16487;53.094;8.800;2023-04-22T02:39:39;101073.34;;;12.24;100.00
29549;BME280;16487;53.094;8.800;2023-04-22T02:42:07;101067.44;;;12.34;100.00
29549;BME280;16487;53.094;8.800;2023-04-22T02:44:34;101077.94;;;12.30;100.00
29549;BME280;16487;53.094;8.800;2023-04-22T02:47:02;101076.34;;;12.29;100.00
29549;BME280;16487;53.094;8.800;2023-04-22T02:49:29;101065.94;;;12.30;100.00
29549;BME280;16487;53.094;8.800;2023-04-22T02:51:58;101071.53;;;12.30;100.00
29549;BME280;16487;53.094;8.800;2023-04-22T02:54:25;101060.38;;;12.30;100.00
29549;BME280;16487;53.094;8.800;2023-04-22T02:56:52;101062.03;;;12.15;100.00
29549;BME280;16487;53.094;8.800;2023-04-22T02:59:20;101058.47;;;12.14;100.00
29549;BME280;16487;53.094;8.800;2023-04-22T03:01:47;101051.44;;;12.10;100.00
29549;BME280;16487;53.094;8.800;2023-04-22T03:04:27;101048.28;;;12.08;100.00
29549;BME280;16487;53.094;8.800;2023-04-22T03:06:55;101042.69;;;12.08;100.00
29549;BME280;16487;53.094;8.800;2023-04-22T03:09:24;101039.34;;;12.13;100.00
29549;BME280;16487;53.094;8.800;2023-04-22T03:11:52;101037.13;;;12.08;100.00
29549;BME280;16487;53.094;8.800;2023-04-22T03:14:19;101033.97;;;12.06;100.00
29549;BME280;16487;53.094;8.800;2023-04-22T03:16:47;101033.19;;;12.05;100.00
29549;BME280;16487;53.094;8.800;2023-04-22T03:19:14;101026.63;;;12.12;100.00
29549;BME280;16487;53.094;8.800;2023-04-22T03:21:42;101034.09;;;12.15;100.00
29549;BME280;16487;53.094;8.800;2023-04-22T03:24:09;101032.22;;;12.12;100.00
29549;BME280;16487;53.094;8.800;2023-04-22T03:26:43;101032.78;;;12.07;100.00
29549;BME280;16487;53.094;8.800;2023-04-22T03:29:11;101029.28;;;12.03;100.00
29549;BME280;16487;53.094;8.800;2023-04-22T03:31:38;101025.81;;;11.99;100.00
29549;BME280;16487;53.094;8.800;2023-04-22T03:34:06;101023.03;;;11.99;100.00
29549;BME280;16487;53.094;8.800;2023-04-22T03:36:33;101017.53;;;11.95;100.00
29549;BME280;16487;53.094;8.800;2023-04-22T03:39:01;101019.78;;;12.00;100.00
29549;BME280;16487;53.094;8.800;2023-04-22T03:41:29;101021.47;;;11.98;100.00
29549;BME280;16487;53.094;8.800;2023-04-22T03:43:58;101014.41;;;11.93;100.00
29549;BME280;16487;53.094;8.800;2023-04-22T03:46:28;101016.75;;;11.95;100.00
29549;BME280;16487;53.094;8.800;2023-04-22T03:49:04;101021.47;;;11.98;100.00
29549;BME280;16487;53.094;8.800;2023-04-22T03:51:34;101011.41;;;12.00;100.00
29549;BME280;16487;53.094;8.800;2023-04-22T03:54:06;101023.72;;;12.03;100.00
29549;BME280;16487;53.094;8.800;2023-04-22T03:56:37;101022.81;;;12.06;100.00
29549;BME280;16487;53.094;8.800;2023-04-22T03:59:06;101010.72;;;12.09;100.00
29549;BME280;16487;53.094;8.800;2023-04-22T04:01:35;101016.78;;;12.07;100.00
29549;BME280;16487;53.094;8.800;2023-04-22T04:04:05;101020.69;;;12.10;100.00
29549;BME280;16487;53.094;8.800;2023-04-22T04:06:49;101016.00;;;12.07;100.00
29549;BME280;16487;53.094;8.800;2023-04-22T04:09:17;101004.28;;;12.12;100.00
29549;BME280;16487;53.094;8.800;2023-04-22T04:11:45;101004.59;;;12.14;100.00
29549;BME280;16487;53.094;8.800;2023-04-22T04:14:14;101003.81;;;12.13;100.00
29549;BME280;16487;53.094;8.800;2023-04-22T04:16:46;101001.38;;;12.15;100.00
29549;BME280;16487;53.094;8.800;2023-04-22T04:19:23;101005.47;;;12.11;100.00
29549;BME280;16487;53.094;8.800;2023-04-22T04:21:50;101004.28;;;12.12;100.00
29549;BME280;16487;53.094;8.800;2023-04-22T04:24:19;101009.84;;;12.12;100.00
29549;BME280;16487;53.094;8.800;2023-04-22T04:26:49;100999.56;;;12.09;100.00
29549;BME280;16487;53.094;8.800;2023-04-22T04:29:22;100993.31;;;12.05;100.00
29549;BME280;16487;53.094;8.800;2023-04-22T04:32:03;100996.22;;;12.01;100.00
29549;BME280;16487;53.094;8.800;2023-04-22T04:34:30;100989.50;;;11.99;100.00
29549;BME280;16487;53.094;8.800;2023-04-22T04:36:57;100995.66;;;11.94;100.00
29549;BME280;16487;53.094;8.800;2023-04-22T04:39:33;100992.97;;;11.90;100.00
29549;BME280;16487;53.094;8.800;2023-04-22T04:42:03;100997.19;;;11.95;100.00
29549;BME280;16487;53.094;8.800;2023-04-22T04:44:39;100996.34;;;11.98;100.00
29549;BME280;16487;53.094;8.800;2023-04-22T04:47:06;100991.19;;;11.96;100.00
29549;BME280;16487;53.094;8.800;2023-04-22T04:49:34;100984.81;;;11.96;100.00
29549;BME280;16487;53.094;8.800;2023-04-22T04:52:01;100993.66;;;11.94;100.00
29549;BME280;16487;53.094;8.800;2023-04-22T04:54:29;100980.03;;;11.96;100.00
29549;BME280;16487;53.094;8.800;2023-04-22T04:56:59;100980.22;;;12.02;100.00
29549;BME280;16487;53.094;8.800;2023-04-22T04:59:26;100978.66;;;12.01;100.00
29549;BME280;16487;53.094;8.800;2023-04-22T05:01:55;100973.41;;;12.03;100.00
29549;BME280;16487;53.094;8.800;2023-04-22T05:04:22;100971.72;;;12.05;100.00
29549;BME280;16487;53.094;8.800;2023-04-22T05:06:50;100977.09;;;12.12;100.00
29549;BME280;16487;53.094;8.800;2023-04-22T05:09:18;100971.38;;;12.16;100.00
29549;BME280;16487;53.094;8.800;2023-04-22T05:11:48;100965.69;;;12.19;100.00
29549;BME280;16487;53.094;8.800;2023-04-22T05:14:18;100976.41;;;12.21;100.00
29549;BME280;16487;53.094;8.800;2023-04-22T05:16:46;100967.81;;;12.28;100.00
29549;BME280;16487;53.094;8.800;2023-04-22T05:19:16;100963.69;;;12.32;100.00
29549;BME280;16487;53.094;8.800;2023-04-22T05:21:44;100970.81;;;12.33;100.00
29549;BME280;16487;53.094;8.800;2023-04-22T05:24:11;100973.03;;;12.38;100.00
29549;BME280;16487;53.094;8.800;2023-04-22T05:26:39;100969.69;;;12.43;100.00
29549;BME280;16487;53.094;8.800;2023-04-22T05:29:13;100983.06;;;12.48;100.00
29549;BME280;16487;53.094;8.800;2023-04-22T05:31:41;100971.78;;;12.52;100.00
29549;BME280;16487;53.094;8.800;2023-04-22T05:34:08;100985.09;;;12.60;100.00
29549;BME280;16487;53.094;8.800;2023-04-22T05:36:38;100972.53;;;12.65;100.00
29549;BME280;16487;53.094;8.800;2023-04-22T05:39:06;100979.44;;;12.73;100.00
29549;BME280;16487;53.094;8.800;2023-04-22T05:41:34;100982.91;;;12.77;100.00
29549;BME280;16487;53.094;8.800;2023-04-22T05:44:04;100985.13;;;12.82;100.00
29549;BME280;16487;53.094;8.800;2023-04-22T05:46:32;100981.63;;;12.91;100.00
29549;BME280;16487;53.094;8.800;2023-04-22T05:49:01;100979.28;;;12.89;100.00
29549;BME280;16487;53.094;8.800;2023-04-22T05:51:50;100990.69;;;12.95;100.00
29549;BME280;16487;53.094;8.800;2023-04-22T05:54:20;100994.03;;;13.02;100.00
29549;BME280;16487;53.094;8.800;2023-04-22T05:56:48;100991.75;;;13.10;100.00
29549;BME280;16487;53.094;8.800;2023-04-22T05:59:15;100993.50;;;13.16;100.00
29549;BME280;16487;53.094;8.800;2023-04-22T06:01:45;101000.19;;;13.31;100.00
29549;BME280;16487;53.094;8.800;2023-04-22T06:04:18;101004.94;;;13.43;100.00
29549;BME280;16487;53.094;8.800;2023-04-22T06:06:46;100990.41;;;13.57;100.00
29549;BME280;16487;53.094;8.800;2023-04-22T06:09:15;100988.28;;;13.70;100.00
29549;BME280;16487;53.094;8.800;2023-04-22T06:11:42;100988.53;;;13.85;100.00
29549;BME280;16487;53.094;8.800;2023-04-22T06:14:10;101001.16;;;13.90;100.00
29549;BME280;16487;53.094;8.800;2023-04-22T06:16:38;100994.63;;;13.93;100.00
29549;BME280;16487;53.094;8.800;2023-04-22T06:19:06;101002.09;;;13.96;100.00
29549;BME280;16487;53.094;8.800;2023-04-22T06:21:35;100989.34;;;13.95;100.00
29549;BME280;16487;53.094;8.800;2023-04-22T06:24:02;100991.22;;;13.98;100.00
29549;BME280;16487;53.094;8.800;2023-04-22T06:26:31;101001.00;;;13.93;100.00
29549;BME280;16487;53.094;8.800;2023-04-22T06:28:59;100997.09;;;13.91;100.00
29549;BME280;16487;53.094;8.800;2023-04-22T06:31:27;100991.50;;;13.91;100.00
29549;BME280;16487;53.094;8.800;2023-04-22T06:33:54;101002.34;;;13.79;100.00
29549;BME280;16487;53.094;8.800;2023-04-22T06:36:22;100987.22;;;13.77;100.00
29549;BME280;16487;53.094;8.800;2023-04-22T06:38:55;100980.22;;;13.72;100.00
29549;BME280;16487;53.094;8.800;2023-04-22T06:41:24;100990.06;;;13.86;100.00
29549;BME280;16487;53.094;8.800;2023-04-22T06:43:57;100984.28;;;13.80;100.00
29549;BME280;16487;53.094;8.800;2023-04-22T06:46:30;100980.56;;;13.83;100.00
29549;BME280;16487;53.094;8.800;2023-04-22T06:49:07;100987.09;;;13.80;100.00
29549;BME280;16487;53.094;8.800;2023-04-22T06:51:52;100982.03;;;13.66;100.00
29549;BME280;16487;53.094;8.800;2023-04-22T06:54:20;100983.34;;;13.74;100.00
29549;BME280;16487;53.094;8.800;2023-04-22T06:56:47;100982.28;;;13.81;100.00
29549;BME280;16487;53.094;8.800;2023-04-22T06:59:16;100976.94;;;13.74;100.00
29549;BME280;16487;53.094;8.800;2023-04-22T07:01:45;100968.06;;;13.75;100.00
29549;BME280;16487;53.094;8.800;2023-04-22T07:04:13;100972.47;;;13.76;100.00
29549;BME280;16487;53.094;8.800;2023-04-22T07:06:41;100961.28;;;13.86;100.00
29549;BME280;16487;53.094;8.800;2023-04-22T07:09:09;100958.59;;;13.73;100.00
29549;BME280;16487;53.094;8.800;2023-04-22T07:11:37;100954.84;;;13.76;100.00
29549;BME280;16487;53.094;8.800;2023-04-22T07:14:13;100944.13;;;13.74;100.00
29549;BME280;16487;53.094;8.800;2023-04-22T07:16:41;100949.31;;;13.94;100.00
29549;BME280;16487;53.094;8.800;2023-04-22T07:19:09;100944.06;;;14.05;100.00
29549;BME280;16487;53.094;8.800;2023-04-22T07:21:36;100951.81;;;14.32;100.00
29549;BME280;16487;53.094;8.800;2023-04-22T07:24:04;100954.84;;;14.64;100.00
29549;BME280;16487;53.094;8.800;2023-04-22T07:26:31;100970.56;;;14.71;100.00
29549;BME280;16487;53.094;8.800;2023-04-22T07:28:59;100967.75;;;14.62;100.00
29549;BME280;16487;53.094;8.800;2023-04-22T07:31:26;100969.47;;;14.59;100.00
29549;BME280;16487;53.094;8.800;2023-04-22T07:33:55;100972.13;;;14.72;100.00
29549;BME280;16487;53.094;8.800;2023-04-22T07:36:22;100967.47;;;14.96;100.00
29549;BME280;16487;53.094;8.800;2023-04-22T07:38:49;100971.22;;;15.11;100.00
29549;BME280;16487;53.094;8.800;2023-04-22T07:41:17;100979.63;;;15.47;100.00
29549;BME280;16487;53.094;8.800;2023-04-22T07:43:44;100976.75;;;15.65;100.00
29549;BME280;16487;53.094;8.800;2023-04-22T07:46:11;100980.44;;;15.89;100.00
29549;BME280;16487;53.094;8.800;2023-04-22T07:48:39;100981.75;;;16.12;100.00
29549;BME280;16487;53.094;8.800;2023-04-22T07:51:08;100985.31;;;16.22;100.00
29549;BME280;16487;53.094;8.800;2023-04-22T07:53:36;100985.59;;;16.24;100.00
29549;BME280;16487;53.094;8.800;2023-04-22T07:56:03;100987.16;;;16.25;100.00
29549;BME280;16487;53.094;8.800;2023-04-22T07:58:31;100993.09;;;16.27;100.00
29549;BME280;16487;53.094;8.800;2023-04-22T08:00:58;100989.38;;;16.21;100.00
29549;BME280;16487;53.094;8.800;2023-04-22T08:03:26;100981.94;;;16.41;100.00
29549;BME280;16487;53.094;8.800;2023-04-22T08:05:53;100981.44;;;16.52;100.00
29549;BME280;16487;53.094;8.800;2023-04-22T08:08:22;100981.94;;;16.41;100.00
29549;BME280;16487;53.094;8.800;2023-04-22T08:10:50;100974.78;;;16.64;100.00
29549;BME280;16487;53.094;8.800;2023-04-22T08:13:17;100978.66;;;16.66;100.00
29549;BME280;16487;53.094;8.800;2023-04-22T08:15:45;100979.63;;;16.63;100.00
29549;BME280;16487;53.094;8.800;2023-04-22T08:18:12;100988.34;;;16.89;100.00
29549;BME280;16487;53.094;8.800;2023-04-22T08:20:39;100984.84;;;16.94;100.00
29549;BME280;16487;53.094;8.800;2023-04-22T08:23:07;100982.78;;;17.03;100.00
29549;BME280;16487;53.094;8.800;2023-04-22T08:25:36;100975.78;;;17.28;100.00
29549;BME280;16487;53.094;8.800;2023-04-22T08:28:03;100963.41;;;17.78;100.00
29549;BME280;16487;53.094;8.800;2023-04-22T08:30:30;100965.56;;;17.83;100.00
29549;BME280;16487;53.094;8.800;2023-04-22T08:32:58;100965.34;;;17.72;100.00
29549;BME280;16487;53.094;8.800;2023-04-22T08:35:26;100961.66;;;17.66;100.00
29549;BME280;16487;53.094;8.800;2023-04-22T08:37:53;100959.28;;;18.08;100.00
29549;BME280;16487;53.094;8.800;2023-04-22T08:40:21;100954.22;;;17.98;100.00
29549;BME280;16487;53.094;8.800;2023-04-22T08:42:50;100961.50;;;18.04;100.00
29549;BME280;16487;53.094;8.800;2023-04-22T08:45:19;100959.28;;;18.08;100.00
29549;BME280;16487;53.094;8.800;2023-04-22T08:47:47;100951.69;;;18.49;100.00
29549;BME280;16487;53.094;8.800;2023-04-22T08:50:15;100940.81;;;18.62;100.00
29549;BME280;16487;53.094;8.800;2023-04-22T08:52:42;100934.09;;;18.60;100.00
29549;BME280;16487;53.094;8.800;2023-04-22T08:55:10;100917.53;;;18.87;100.00
29549;BME280;16487;53.094;8.800;2023-04-22T08:57:38;100912.41;;;19.17;100.00
29549;BME280;16487;53.094;8.800;2023-04-22T09:00:08;100906.22;;;19.13;100.00
29549;BME280;16487;53.094;8.800;2023-04-22T09:02:36;100912.41;;;19.17;100.00
29549;BME280;16487;53.094;8.800;2023-04-22T09:05:05;100912.53;;;19.28;100.00
29549;BME280;16487;53.094;8.800;2023-04-22T09:07:35;100902.78;;;19.29;100.00
29549;BME280;16487;53.094;8.800;2023-04-22T09:10:03;100907.66;;;19.54;100.00
29549;BME280;16487;53.094;8.800;2023-04-22T09:12:31;100904.22;;;19.70;100.00
29549;BME280;16487;53.094;8.800;2023-04-22T09:14:58;100905.19;;;19.36;100.00
29549;BME280;16487;53.094;8.800;2023-04-22T09:17:31;100899.47;;;19.56;100.00
29549;BME280;16487;53.094;8.800;2023-04-22T09:19:59;100899.97;;;19.55;100.00
29549;BME280;16487;53.094;8.800;2023-04-22T09:22:27;100903.31;;;19.59;100.00
29549;BME280;16487;53.094;8.800;2023-04-22T09:24:55;100910.63;;;19.71;100.00
29549;BME280;16487;53.094;8.800;2023-04-22T09:27:25;100912.03;;;19.86;100.00
29549;BME280;16487;53.094;8.800;2023-04-22T09:29:52;100913.66;;;19.98;100.00
29549;BME280;16487;53.094;8.800;2023-04-22T09:32:23;100910.94;;;19.78;100.00
29549;BME280;16487;53.094;8.800;2023-04-22T09:34:53;100903.72;;;20.14;100.00
29549;BME280;16487;53.094;8.800;2023-04-22T09:37:24;100909.41;;;19.77;100.00
29549;BME280;16487;53.094;8.800;2023-04-22T09:40:02;100907.38;;;19.83;100.00
29549;BME280;16487;53.094;8.800;2023-04-22T09:42:46;100899.41;;;20.18;100.00
29549;BME280;16487;53.094;8.800;2023-04-22T09:45:24;100887.59;;;20.95;100.00
29549;BME280;16487;53.094;8.800;2023-04-22T09:47:52;100884.41;;;21.85;100.00
29549;BME280;16487;53.094;8.800;2023-04-22T09:50:23;100878.69;;;21.96;100.00
29549;BME280;16487;53.094;8.800;2023-04-22T09:52:55;100876.28;;;22.22;100.00
29549;BME280;16487;53.094;8.800;2023-04-22T09:55:23;100855.78;;;22.51;100.00
29549;BME280;16487;53.094;8.800;2023-04-22T09:57:52;100845.19;;;23.04;100.00
29549;BME280;16487;53.094;8.800;2023-04-22T10:00:21;100848.66;;;23.21;100.00
29549;BME280;16487;53.094;8.800;2023-04-22T10:02:49;100843.47;;;23.60;100.00
29549;BME280;16487;53.094;8.800;2023-04-22T10:05:17;100841.00;;;23.75;100.00
29549;BME280;16487;53.094;8.800;2023-04-22T10:07:45;100841.31;;;23.66;100.00
29549;BME280;16487;53.094;8.800;2023-04-22T10:10:13;100827.34;;;23.92;100.00
29549;BME280;16487;53.094;8.800;2023-04-22T10:12:41;100832.94;;;23.79;100.00
29549;BME280;16487;53.094;8.800;2023-04-22T10:15:09;100829.41;;;23.67;100.00
29549;BME280;16487;53.094;8.800;2023-04-22T10:17:38;100823.56;;;24.51;100.00
29549;BME280;16487;53.094;8.800;2023-04-22T10:20:08;100824.75;;;23.94;100.00
29549;BME280;16487;53.094;8.800;2023-04-22T10:22:37;100819.66;;;24.11;100.00
29549;BME280;16487;53.094;8.800;2023-04-22T10:25:10;100806.22;;;24.49;100.00
29549;BME280;16487;53.094;8.800;2023-04-22T10:27:37;100813.06;;;24.40;100.00
29549;BME280;16487;53.094;8.800;2023-04-22T10:30:07;100812.22;;;23.78;100.00
29549;BME280;16487;53.094;8.800;2023-04-22T10:32:34;100808.88;;;24.23;100.00
29549;BME280;16487;53.094;8.800;2023-04-22T10:35:10;100804.06;;;24.55;100.00
29549;BME280;16487;53.094;8.800;2023-04-22T10:37:42;100803.53;;;24.38;100.00
29549;BME280;16487;53.094;8.800;2023-04-22T10:40:14;100807.75;;;23.83;100.00
29549;BME280;16487;53.094;8.800;2023-04-22T10:42:46;100801.00;;;24.53;100.00
29549;BME280;16487;53.094;8.800;2023-04-22T10:45:14;100802.31;;;24.52;100.00
29549;BME280;16487;53.094;8.800;2023-04-22T10:47:41;100811.56;;;23.67;100.00
29549;BME280;16487;53.094;8.800;2023-04-22T10:50:15;100814.22;;;22.95;100.00
29549;BME280;16487;53.094;8.800;2023-04-22T10:52:46;100811.78;;;23.45;100.00
29549;BME280;16487;53.094;8.800;2023-04-22T10:55:16;100798.38;;;23.40;100.00
29549;BME280;16487;53.094;8.800;2023-04-22T10:57:44;100784.50;;;24.27;100.00
29549;BME280;16487;53.094;8.800;2023-04-22T11:00:31;100779.34;;;24.44;100.00
29549;BME280;16487;53.094;8.800;2023-04-22T11:03:24;100761.72;;;25.28;100.00
29549;BME280;16487;53.094;8.800;2023-04-22T11:06:13;100759.94;;;25.12;100.00
29549;BME280;16487;53.094;8.800;2023-04-22T11:08:43;100762.34;;;25.65;100.00
29549;BME280;16487;53.094;8.800;2023-04-22T11:11:12;100739.34;;;26.36;100.00
29549;BME280;16487;53.094;8.800;2023-04-22T11:13:40;100730.81;;;26.23;100.00
29549;BME280;16487;53.094;8.800;2023-04-22T11:16:07;100718.03;;;26.37;100.00
29549;BME280;16487;53.094;8.800;2023-04-22T11:18:36;100703.75;;;26.91;100.00
29549;BME280;16487;53.094;8.800;2023-04-22T11:21:05;100707.00;;;27.16;100.00
29549;BME280;16487;53.094;8.800;2023-04-22T11:23:32;100694.31;;;27.04;100.00
29549;BME280;16487;53.094;8.800;2023-04-22T11:26:01;100697.72;;;26.61;100.00
29549;BME280;16487;53.094;8.800;2023-04-22T11:28:30;100687.03;;;27.44;100.00
29549;BME280;16487;53.094;8.800;2023-04-22T11:31:02;100671.69;;;27.13;100.00
29549;BME280;16487;53.094;8.800;2023-04-22T11:33:31;100706.91;;;25.74;100.00
29549;BME280;16487;53.094;8.800;2023-04-22T11:35:59;100689.56;;;25.59;100.00
29549;BME280;16487;53.094;8.800;2023-04-22T11:38:26;100701.19;;;25.48;100.00
29549;BME280;16487;53.094;8.800;2023-04-22T11:40:55;100704.09;;;25.16;100.00
29549;BME280;16487;53.094;8.800;2023-04-22T11:43:22;100708.81;;;25.14;100.00
29549;BME280;16487;53.094;8.800;2023-04-22T11:45:54;100683.72;;;26.71;100.00
29549;BME280;16487;53.094;8.800;2023-04-22T11:48:22;100677.28;;;26.98;100.00
29549;BME280;16487;53.094;8.800;2023-04-22T11:51:06;100664.88;;;27.24;100.00
29549;BME280;16487;53.094;8.800;2023-04-22T11:53:34;100659.63;;;27.07;100.00
29549;BME280;16487;53.094;8.800;2023-04-22T11:56:01;100645.00;;;27.39;100.00
29549;BME280;16487;53.094;8.800;2023-04-22T11:58:29;100659.44;;;27.62;100.00
29549;BME280;16487;53.094;8.800;2023-04-22T12:00:58;100643.06;;;27.70;100.00
29549;BME280;16487;53.094;8.800;2023-04-22T12:03:26;100634.63;;;28.00;100.00
29549;BME280;16487;53.094;8.800;2023-04-22T12:05:57;100645.44;;;27.51;100.00
29549;BME280;16487;53.094;8.800;2023-04-22T12:08:29;100627.13;;;27.54;100.00
29549;BME280;16487;53.094;8.800;2023-04-22T12:10:59;100625.84;;;28.05;100.00
29549;BME280;16487;53.094;8.800;2023-04-22T12:13:29;100632.84;;;27.54;100.00
29549;BME280;16487;53.094;8.800;2023-04-22T12:15:59;100623.88;;;27.22;100.00
29549;BME280;16487;53.094;8.800;2023-04-22T12:18:28;100642.38;;;27.49;100.00
29549;BME280;16487;53.094;8.800;2023-04-22T12:20:58;100629.97;;;27.89;100.00
29549;BME280;16487;53.094;8.800;2023-04-22T12:23:26;100636.16;;;27.30;100.00
29549;BME280;16487;53.094;8.800;2023-04-22T12:25:53;100639.28;;;27.39;100.00
29549;BME280;16487;53.094;8.800;2023-04-22T12:28:21;100621.34;;;27.82;100.00
29549;BME280;16487;53.094;8.800;2023-04-22T12:30:48;100634.50;;;27.42;100.00
29549;BME280;16487;53.094;8.800;2023-04-22T12:33:17;100640.94;;;26.65;100.00
29549;BME280;16487;53.094;8.800;2023-04-22T12:35:44;100633.19;;;27.43;100.00
29549;BME280;16487;53.094;8.800;2023-04-22T12:38:11;100640.13;;;27.55;100.00
29549;BME280;16487;53.094;8.800;2023-04-22T12:40:39;100655.22;;;25.98;100.00
29549;BME280;16487;53.094;8.800;2023-04-22T12:43:06;100646.00;;;26.05;100.00
29549;BME280;16487;53.094;8.800;2023-04-22T12:45:33;100652.03;;;26.15;100.00
29549;BME280;16487;53.094;8.800;2023-04-22T12:48:01;100661.53;;;25.83;100.00
29549;BME280;16487;53.094;8.800;2023-04-22T12:50:30;100644.88;;;25.48;100.00
29549;BME280;16487;53.094;8.800;2023-04-22T12:52:57;100637.88;;;26.09;100.00